Time;durP1;ratioP1;P1;durP2;ratioP2;P2;SDS_P1;SDS_P2;PMS_P1;PMS_P2;Temp;Humidity;BMP_temperature;BMP_pressure;BME280_temperature;BME280_humidity;BME280_pressure;Samples;Min_cycle;Max_cycle;Signal;HPM_P1;HPM_P2
2022/02/26 00:00:58;;;;;;;21.45;5.32;;;4.70;99.90;;;;;;5015256;28;20056;-58
2022/02/26 00:03:23;;;;;;;22.48;5.63;;;4.80;99.90;;;;;;5014662;28;20096;-55
2022/02/26 00:05:49;;;;;;;26.83;6.28;;;4.70;99.90;;;;;;5014873;28;20504;-53
2022/02/26 00:08:15;;;;;;;24.20;5.05;;;4.60;99.90;;;;;;5014613;28;20050;-53
2022/02/26 00:10:40;;;;;;;27.02;5.43;;;4.60;99.90;;;;;;5012770;28;20371;-58
2022/02/26 00:13:06;;;;;;;22.63;5.50;;;4.50;99.90;;;;;;5014233;28;20057;-53
2022/02/26 00:15:32;;;;;;;19.25;4.63;;;4.60;99.90;;;;;;5013117;28;20111;-50
2022/02/26 00:17:57;;;;;;;25.92;5.38;;;4.60;99.90;;;;;;4996254;28;20037;-50
2022/02/26 00:20:23;;;;;;;18.27;5.43;;;4.60;99.90;;;;;;4996026;28;20034;-54
2022/02/26 00:22:48;;;;;;;27.80;5.40;;;4.60;99.90;;;;;;5013942;28;20336;-51
2022/02/26 00:25:14;;;;;;;29.33;6.15;;;4.60;99.90;;;;;;4996485;28;20093;-55
2022/02/26 00:27:40;;;;;;;21.17;5.55;;;4.50;99.90;;;;;;5013647;28;20026;-52
2022/02/26 00:30:06;;;;;;;22.88;4.90;;;4.60;99.90;;;;;;5013318;28;20371;-55
2022/02/26 00:32:32;;;;;;;23.65;5.90;;;4.50;99.90;;;;;;5013016;28;20022;-52
2022/02/26 00:34:57;;;;;;;20.70;4.65;;;4.60;99.90;;;;;;5020115;28;20037;-51
2022/02/26 00:37:23;;;;;;;16.30;4.80;;;4.40;99.90;;;;;;5032890;28;20036;-51
2022/02/26 00:39:49;;;;;;;14.60;4.90;;;4.30;99.90;;;;;;5032784;28;20079;-56
2022/02/26 00:42:14;;;;;;;21.02;5.72;;;4.20;99.90;;;;;;5018053;28;20022;-51
2022/02/26 00:44:40;;;;;;;15.55;4.57;;;4.20;99.90;;;;;;5013251;28;20477;-52
2022/02/26 00:47:07;;;;;;;18.95;5.03;;;4.00;99.90;;;;;;5012961;28;20108;-55
2022/02/26 00:49:49;;;;;;;22.40;5.25;;;3.90;99.90;;;;;;5012990;28;20022;-56
2022/02/26 00:52:17;;;;;;;16.48;5.20;;;3.70;99.90;;;;;;5013430;28;20030;-54
2022/02/26 00:54:43;;;;;;;18.25;5.57;;;3.80;99.90;;;;;;5014237;28;20137;-56
2022/02/26 00:57:09;;;;;;;21.35;4.93;;;3.80;99.90;;;;;;5013614;28;20517;-52
2022/02/26 00:59:35;;;;;;;17.65;4.60;;;3.80;99.90;;;;;;5013551;28;20033;-55
2022/02/26 01:02:00;;;;;;;18.63;4.82;;;3.90;99.90;;;;;;5013117;28;20069;-56
2022/02/26 01:04:26;;;;;;;17.85;5.80;;;3.90;99.90;;;;;;4995406;28;20074;-50
2022/02/26 01:06:52;;;;;;;15.55;5.28;;;3.90;99.90;;;;;;5013282;28;20030;-51
2022/02/26 01:09:18;;;;;;;17.55;4.93;;;3.80;99.90;;;;;;5014596;28;20040;-54
2022/02/26 01:11:44;;;;;;;19.65;4.50;;;3.90;99.90;;;;;;5012183;28;20398;-56
2022/02/26 01:14:10;;;;;;;20.73;5.07;;;3.90;99.90;;;;;;5013793;28;20474;-56
2022/02/26 01:16:36;;;;;;;11.48;4.90;;;3.80;99.90;;;;;;5013762;28;20064;-51
2022/02/26 01:19:03;;;;;;;16.98;4.57;;;3.70;99.90;;;;;;5014349;28;20037;-54
2022/02/26 01:21:29;;;;;;;15.00;5.18;;;3.60;99.90;;;;;;5013793;28;20040;-54
2022/02/26 01:23:54;;;;;;;19.55;5.93;;;3.60;99.90;;;;;;5013119;28;20030;-53
2022/02/26 01:26:21;;;;;;;14.95;6.03;;;3.60;99.90;;;;;;5012943;28;20045;-55
2022/02/26 01:28:47;;;;;;;16.52;5.20;;;3.50;99.90;;;;;;5012742;28;20027;-54
2022/02/26 01:31:14;;;;;;;16.75;5.03;;;3.40;99.90;;;;;;5012933;28;20030;-54
2022/02/26 01:33:40;;;;;;;11.30;4.78;;;3.50;99.90;;;;;;4995042;28;20045;-54
2022/02/26 01:36:06;;;;;;;18.15;6.18;;;3.50;99.90;;;;;;5011359;28;20053;-54
2022/02/26 01:38:32;;;;;;;16.60;5.47;;;3.40;99.90;;;;;;5012520;28;20061;-54
2022/02/26 01:40:57;;;;;;;13.50;4.93;;;3.30;99.90;;;;;;5012642;28;20030;-54
2022/02/26 01:43:23;;;;;;;19.55;5.32;;;3.20;99.90;;;;;;5012227;28;20117;-52
2022/02/26 01:45:49;;;;;;;15.60;6.07;;;3.20;99.90;;;;;;5013261;28;20050;-55
2022/02/26 01:48:14;;;;;;;15.95;5.05;;;3.10;99.90;;;;;;5013542;28;20033;-55
2022/02/26 01:50:40;;;;;;;15.75;4.95;;;3.20;99.90;;;;;;5013103;28;20549;-49
2022/02/26 01:53:07;;;;;;;13.63;5.05;;;3.10;99.90;;;;;;4994573;28;20036;-55
2022/02/26 01:55:32;;;;;;;18.67;5.78;;;3.20;99.90;;;;;;5012855;28;20069;-54
2022/02/26 01:57:58;;;;;;;17.13;4.93;;;3.30;99.90;;;;;;5012789;28;20058;-54
2022/02/26 02:00:24;;;;;;;13.77;5.07;;;3.30;99.90;;;;;;5011341;28;20030;-52
2022/02/26 02:02:49;;;;;;;18.48;5.05;;;3.30;99.90;;;;;;5012304;28;20060;-55
2022/02/26 02:05:15;;;;;;;21.52;6.30;;;3.40;99.90;;;;;;5012907;28;20061;-52
2022/02/26 02:07:41;;;;;;;15.35;5.55;;;3.50;99.90;;;;;;5016086;28;20034;-55
2022/02/26 02:10:07;;;;;;;15.48;5.45;;;3.60;99.90;;;;;;5016650;28;20486;-54
2022/02/26 02:12:34;;;;;;;12.77;5.43;;;3.50;99.90;;;;;;5016318;28;20060;-55
2022/02/26 02:15:00;;;;;;;13.98;4.70;;;3.60;99.90;;;;;;5016278;28;20045;-55
2022/02/26 02:17:25;;;;;;;14.77;5.75;;;3.50;99.90;;;;;;5015500;28;20022;-53
2022/02/26 02:19:51;;;;;;;21.00;6.40;;;3.50;99.90;;;;;;5016554;28;20557;-55
2022/02/26 02:22:18;;;;;;;18.73;5.65;;;3.60;99.90;;;;;;5016079;28;20030;-53
2022/02/26 02:24:44;;;;;;;21.65;5.85;;;3.70;99.90;;;;;;5016359;28;20026;-53
2022/02/26 02:27:11;;;;;;;11.90;4.82;;;3.80;99.90;;;;;;5015937;28;20073;-52
2022/02/26 02:29:37;;;;;;;14.55;4.93;;;3.90;99.90;;;;;;5016566;28;20030;-56
2022/02/26 02:32:03;;;;;;;19.38;5.00;;;3.80;99.90;;;;;;4998879;28;20542;-55
2022/02/26 02:34:28;;;;;;;23.73;6.90;;;3.90;99.90;;;;;;5018692;28;20511;-56
2022/02/26 02:36:54;;;;;;;21.02;5.43;;;4.00;99.90;;;;;;5035966;28;20116;-52
2022/02/26 02:39:20;;;;;;;17.63;5.15;;;4.00;99.90;;;;;;5035431;28;20062;-54
2022/02/26 02:41:45;;;;;;;20.38;5.25;;;4.00;99.90;;;;;;5024982;28;20034;-51
2022/02/26 02:44:13;;;;;;;20.85;4.97;;;4.00;99.90;;;;;;5015573;28;20034;-53
2022/02/26 02:46:40;;;;;;;21.67;5.80;;;4.00;99.90;;;;;;5015825;28;20088;-51
2022/02/26 02:49:06;;;;;;;22.02;4.65;;;4.20;99.90;;;;;;5015709;28;20018;-53
2022/02/26 02:51:31;;;;;;;23.90;5.10;;;4.10;99.90;;;;;;5016220;28;20030;-52
2022/02/26 02:53:57;;;;;;;20.00;4.82;;;4.10;99.90;;;;;;5015744;28;20030;-53
2022/02/26 02:56:23;;;;;;;18.08;4.65;;;4.20;99.90;;;;;;5015800;28;20117;-53
2022/02/26 02:58:48;;;;;;;17.95;5.03;;;4.30;99.90;;;;;;5015591;28;20081;-52
2022/02/26 03:01:14;;;;;;;18.80;4.88;;;4.20;99.90;;;;;;5015943;28;20092;-55
2022/02/26 03:03:39;;;;;;;19.88;5.50;;;4.10;99.90;;;;;;5015175;28;20034;-56
2022/02/26 03:06:06;;;;;;;19.77;5.38;;;4.10;99.90;;;;;;5015337;28;20026;-56
2022/02/26 03:08:32;;;;;;;19.20;6.10;;;4.10;99.90;;;;;;5015526;28;20367;-55
2022/02/26 03:10:58;;;;;;;19.83;5.13;;;4.20;99.90;;;;;;5015292;28;20033;-56
2022/02/26 03:13:26;;;;;;;23.20;5.63;;;4.20;99.90;;;;;;5014574;28;20042;-54
2022/02/26 03:15:53;;;;;;;17.42;4.90;;;4.20;99.90;;;;;;5016559;28;20034;-55
2022/02/26 03:18:20;;;;;;;17.48;5.65;;;4.30;99.90;;;;;;5014566;28;20061;-56
2022/02/26 03:20:46;;;;;;;23.75;5.88;;;4.30;99.90;;;;;;5015350;28;20394;-55
2022/02/26 03:23:12;;;;;;;19.20;5.20;;;4.20;99.90;;;;;;5015448;28;20026;-56
2022/02/26 03:25:38;;;;;;;18.20;4.90;;;4.40;99.90;;;;;;5015722;28;20474;-56
2022/02/26 03:28:04;;;;;;;20.13;4.88;;;4.40;99.90;;;;;;5015220;28;20037;-54
2022/02/26 03:30:30;;;;;;;19.08;5.85;;;4.40;99.90;;;;;;4996900;28;20022;-55
2022/02/26 03:32:56;;;;;;;22.58;4.80;;;4.20;99.90;;;;;;5014420;28;20085;-54
2022/02/26 03:35:22;;;;;;;21.55;5.70;;;4.20;99.90;;;;;;5024494;28;20041;-57
2022/02/26 03:37:47;;;;;;;20.50;5.00;;;4.40;99.90;;;;;;5016319;28;20037;-56
2022/02/26 03:40:13;;;;;;;14.52;4.07;;;4.50;99.90;;;;;;4983816;28;20041;-57
2022/02/26 03:42:39;;;;;;;19.50;5.00;;;4.50;99.90;;;;;;5015773;28;20061;-55
2022/02/26 03:45:07;;;;;;;12.07;4.40;;;4.50;99.90;;;;;;4996972;28;20070;-55
2022/02/26 03:47:33;;;;;;;16.00;4.57;;;4.50;99.90;;;;;;5013942;28;20030;-56
2022/02/26 03:49:59;;;;;;;20.55;5.10;;;4.60;99.90;;;;;;5014149;28;20101;-52
2022/02/26 03:52:24;;;;;;;22.77;5.00;;;4.60;99.90;;;;;;5014054;28;20485;-51
2022/02/26 03:54:50;;;;;;;21.90;5.88;;;4.60;99.90;;;;;;5014114;28;20395;-55
2022/02/26 03:57:16;;;;;;;22.17;5.13;;;4.60;99.90;;;;;;5014378;28;20041;-56
2022/02/26 03:59:42;;;;;;;18.67;4.57;;;4.50;99.90;;;;;;5014028;28;20042;-55
2022/02/26 04:02:07;;;;;;;16.70;4.70;;;4.50;99.90;;;;;;5014124;28;20440;-53
2022/02/26 04:04:34;;;;;;;19.38;5.65;;;4.50;99.90;;;;;;5014543;28;20042;-53
2022/02/26 04:07:00;;;;;;;26.08;5.30;;;4.50;99.90;;;;;;5014045;28;20085;-56
2022/02/26 04:09:25;;;;;;;14.95;4.35;;;4.60;99.90;;;;;;5013949;28;20037;-55
2022/02/26 04:11:51;;;;;;;20.15;5.55;;;4.60;99.90;;;;;;5013759;28;20037;-51
2022/02/26 04:14:17;;;;;;;19.45;5.47;;;4.60;99.90;;;;;;5013790;28;20029;-55
2022/02/26 04:16:42;;;;;;;23.30;5.13;;;4.60;99.90;;;;;;5013286;28;20088;-55
2022/02/26 04:19:08;;;;;;;21.38;4.88;;;4.70;99.90;;;;;;5014070;28;20044;-56
2022/02/26 04:21:34;;;;;;;23.35;4.82;;;4.80;99.90;;;;;;5013858;28;20080;-54
2022/02/26 04:24:00;;;;;;;29.90;7.05;;;4.80;99.90;;;;;;5014010;28;20034;-58
2022/02/26 04:26:26;;;;;;;21.83;6.13;;;4.70;99.90;;;;;;5013894;28;20508;-56
2022/02/26 04:28:54;;;;;;;18.60;4.72;;;4.80;99.90;;;;;;5013949;28;20444;-56
2022/02/26 04:31:21;;;;;;;21.08;4.93;;;4.70;99.90;;;;;;5013946;28;20022;-56
2022/02/26 04:33:47;;;;;;;21.17;5.18;;;4.80;99.90;;;;;;4996640;28;20037;-56
2022/02/26 04:36:13;;;;;;;23.65;5.80;;;4.70;99.90;;;;;;5030898;28;20382;-54
2022/02/26 04:38:39;;;;;;;28.45;6.13;;;4.70;99.90;;;;;;5034335;28;20035;-56
2022/02/26 04:41:06;;;;;;;23.80;6.00;;;4.80;99.90;;;;;;5010388;28;20470;-53
2022/02/26 04:43:34;;;;;;;17.98;5.43;;;4.80;99.90;;;;;;5013453;28;20038;-52
2022/02/26 04:46:00;;;;;;;26.45;7.07;;;4.80;99.90;;;;;;5013319;28;20029;-52
2022/02/26 04:48:26;;;;;;;25.15;6.15;;;4.80;99.90;;;;;;5011589;28;20030;-54
2022/02/26 04:50:51;;;;;;;20.20;6.10;;;4.90;99.90;;;;;;5012722;28;20096;-56
2022/02/26 04:53:17;;;;;;;18.67;6.00;;;4.80;99.90;;;;;;5012538;28;20030;-56
2022/02/26 04:55:42;;;;;;;17.13;4.63;;;4.70;99.90;;;;;;5013560;28;20044;-52
2022/02/26 04:58:08;;;;;;;18.17;4.65;;;4.70;99.90;;;;;;5014350;28;20065;-55
2022/02/26 05:00:34;;;;;;;20.05;5.28;;;4.80;99.90;;;;;;5013679;28;20040;-51
2022/02/26 05:03:00;;;;;;;22.27;4.53;;;4.80;99.90;;;;;;5013319;28;20069;-53
2022/02/26 05:05:26;;;;;;;19.70;5.57;;;4.60;99.90;;;;;;5013808;28;20077;-55
2022/02/26 05:07:51;;;;;;;22.38;6.15;;;4.70;99.90;;;;;;5013192;28;20034;-55
2022/02/26 05:10:17;;;;;;;23.70;5.45;;;4.70;99.90;;;;;;5013035;28;20111;-54
2022/02/26 05:12:43;;;;;;;18.88;4.90;;;4.70;99.90;;;;;;4995533;28;20036;-55
2022/02/26 05:15:09;;;;;;;19.52;5.18;;;4.70;99.90;;;;;;5013325;28;20347;-51
2022/02/26 05:17:38;;;;;;;24.73;5.50;;;4.70;99.90;;;;;;5013416;28;20045;-54
2022/02/26 05:20:04;;;;;;;19.58;4.65;;;4.70;99.90;;;;;;5014176;28;20042;-55
2022/02/26 05:22:29;;;;;;;24.13;5.30;;;4.80;99.90;;;;;;5013225;28;20056;-56
2022/02/26 05:24:55;;;;;;;23.73;5.60;;;4.80;99.90;;;;;;5013481;28;20026;-53
2022/02/26 05:27:20;;;;;;;16.73;4.50;;;4.70;99.90;;;;;;4995501;28;20134;-55
2022/02/26 05:29:46;;;;;;;23.67;5.38;;;4.80;99.90;;;;;;5013231;28;20033;-56
2022/02/26 05:32:12;;;;;;;27.33;5.95;;;4.80;99.90;;;;;;5013001;28;20025;-55
2022/02/26 05:34:37;;;;;;;27.13;6.07;;;4.70;99.90;;;;;;5012888;28;20101;-52
2022/02/26 05:37:03;;;;;;;22.63;5.25;;;4.80;99.90;;;;;;5011329;28;20421;-55
2022/02/26 05:39:29;;;;;;;32.38;6.40;;;4.70;99.90;;;;;;5011955;28;20069;-51
2022/02/26 05:41:55;;;;;;;21.45;5.65;;;4.80;99.90;;;;;;5015479;28;20030;-55
2022/02/26 05:44:24;;;;;;;19.55;5.05;;;4.80;99.90;;;;;;5015977;28;20129;-54
2022/02/26 05:46:50;;;;;;;22.95;5.25;;;4.70;99.90;;;;;;5016625;28;20478;-55
2022/02/26 05:49:16;;;;;;;27.35;5.07;;;4.70;99.90;;;;;;5016696;28;20030;-54
2022/02/26 05:51:41;;;;;;;25.90;5.15;;;4.80;99.90;;;;;;5016904;28;20505;-54
2022/02/26 05:54:07;;;;;;;21.25;5.63;;;4.80;99.90;;;;;;5016840;28;20029;-56
2022/02/26 05:56:32;;;;;;;18.60;4.88;;;4.60;99.90;;;;;;5017376;28;20104;-55
2022/02/26 05:58:58;;;;;;;17.45;4.93;;;4.70;99.90;;;;;;5016686;28;20029;-55
2022/02/26 06:01:23;;;;;;;16.58;5.30;;;4.70;99.90;;;;;;5017183;28;20034;-57
2022/02/26 06:03:49;;;;;;;20.10;5.82;;;4.70;99.90;;;;;;5015785;28;20030;-57
2022/02/26 06:06:14;;;;;;;22.95;6.00;;;4.60;99.90;;;;;;5017905;28;20060;-53
2022/02/26 06:08:40;;;;;;;28.85;6.53;;;4.60;99.90;;;;;;5017321;28;20116;-58
2022/02/26 06:11:05;;;;;;;23.58;6.05;;;4.50;99.90;;;;;;5016670;28;20101;-53
2022/02/26 06:13:31;;;;;;;24.73;5.82;;;4.60;99.90;;;;;;5015896;28;20030;-54
2022/02/26 06:15:57;;;;;;;17.73;4.85;;;4.50;99.90;;;;;;5016202;28;20137;-55
2022/02/26 06:18:24;;;;;;;23.58;5.47;;;4.50;99.90;;;;;;5015641;28;20440;-57
2022/02/26 06:20:50;;;;;;;21.02;5.32;;;4.50;99.90;;;;;;4998770;28;20034;-56
2022/02/26 06:23:15;;;;;;;27.70;6.05;;;4.50;99.90;;;;;;5016304;28;20060;-56
2022/02/26 06:25:41;;;;;;;27.45;5.40;;;4.50;99.90;;;;;;5015888;28;20117;-58
2022/02/26 06:28:10;;;;;;;24.88;5.70;;;4.60;99.90;;;;;;5015874;28;20033;-56
2022/02/26 06:30:35;;;;;;;25.58;6.13;;;4.60;99.90;;;;;;5016052;28;20014;-54
2022/02/26 06:33:01;;;;;;;25.38;5.32;;;4.60;99.90;;;;;;5015715;28;20056;-53
2022/02/26 06:35:27;;;;;;;27.95;6.18;;;4.50;99.90;;;;;;5026738;28;20128;-53
2022/02/26 06:37:52;;;;;;;19.75;5.85;;;4.60;99.90;;;;;;5035708;28;20087;-55
2022/02/26 06:40:18;;;;;;;25.27;6.15;;;4.50;99.90;;;;;;5035955;28;20032;-55
2022/02/26 06:42:45;;;;;;;27.95;6.15;;;4.50;99.90;;;;;;5016981;28;20061;-59
2022/02/26 06:45:10;;;;;;;27.38;5.93;;;4.40;99.90;;;;;;5015715;28;20033;-54
2022/02/26 06:47:36;;;;;;;24.08;5.95;;;4.50;99.90;;;;;;5015447;28;20038;-59
2022/02/26 06:50:03;;;;;;;23.88;5.72;;;4.40;99.90;;;;;;5014577;28;20473;-57
2022/02/26 06:52:29;;;;;;;29.20;5.63;;;4.30;99.90;;;;;;5015469;28;20084;-52
2022/02/26 06:54:55;;;;;;;27.77;6.68;;;4.40;99.90;;;;;;5015920;28;20029;-54
2022/02/26 06:57:22;;;;;;;16.20;5.28;;;4.50;99.90;;;;;;5015506;28;20034;-50
2022/02/26 06:59:47;;;;;;;27.27;5.75;;;4.50;99.90;;;;;;5016312;28;20034;-57
2022/02/26 07:02:13;;;;;;;24.75;6.25;;;4.40;99.90;;;;;;5016195;28;20033;-52
2022/02/26 07:04:41;;;;;;;25.02;5.50;;;4.40;99.90;;;;;;5016026;28;20172;-53
2022/02/26 07:07:07;;;;;;;22.23;5.95;;;4.50;99.90;;;;;;5015947;28;20034;-55
2022/02/26 07:09:33;;;;;;;27.77;5.65;;;4.40;99.90;;;;;;5016193;28;20022;-56
2022/02/26 07:11:58;;;;;;;24.77;5.93;;;4.40;99.90;;;;;;5015475;28;20551;-53
2022/02/26 07:14:24;;;;;;;33.10;5.55;;;4.40;99.90;;;;;;4997677;28;20034;-54
2022/02/26 07:16:49;;;;;;;20.58;6.45;;;4.40;99.90;;;;;;5015214;28;20034;-55
2022/02/26 07:19:15;;;;;;;22.23;5.40;;;4.40;99.90;;;;;;5015618;28;20063;-54
2022/02/26 07:21:41;;;;;;;31.48;6.03;;;4.40;99.90;;;;;;5015244;28;20046;-56
2022/02/26 07:24:07;;;;;;;29.13;6.10;;;4.50;99.90;;;;;;5014781;28;20030;-52
2022/02/26 07:26:32;;;;;;;22.42;6.25;;;4.50;99.90;;;;;;5015254;28;20056;-56
2022/02/26 07:28:58;;;;;;;22.60;6.03;;;4.60;99.90;;;;;;5015666;28;20030;-55
2022/02/26 07:31:25;;;;;;;23.35;5.68;;;4.50;99.90;;;;;;5014806;28;20026;-55
2022/02/26 07:33:50;;;;;;;24.95;6.00;;;4.50;99.90;;;;;;5014570;28;20030;-57
2022/02/26 07:36:16;;;;;;;19.65;6.18;;;4.60;99.90;;;;;;5031867;28;20040;-56
2022/02/26 07:38:42;;;;;;;31.10;8.05;;;4.70;99.90;;;;;;5036847;28;20029;-56
2022/02/26 07:41:08;;;;;;;18.63;6.10;;;4.60;99.90;;;;;;5030085;28;20029;-56
2022/02/26 07:43:35;;;;;;;25.65;6.15;;;4.60;99.90;;;;;;5014304;28;20081;-57
2022/02/26 07:46:01;;;;;;;16.17;5.20;;;4.60;99.90;;;;;;5013689;28;20056;-52
2022/02/26 07:48:27;;;;;;;23.08;5.32;;;4.80;99.90;;;;;;5014217;28;20030;-53
2022/02/26 07:50:53;;;;;;;18.58;5.63;;;4.80;99.90;;;;;;4996065;28;20113;-55
2022/02/26 07:53:18;;;;;;;23.58;5.55;;;4.80;99.90;;;;;;5013176;28;20069;-56
2022/02/26 07:55:44;;;;;;;28.85;6.70;;;4.80;99.90;;;;;;5013051;28;20136;-55
2022/02/26 07:58:10;;;;;;;19.50;5.78;;;4.80;99.90;;;;;;5013001;28;20044;-52
2022/02/26 08:00:36;;;;;;;26.45;7.13;;;4.90;99.90;;;;;;5012408;28;20069;-55
2022/02/26 08:03:02;;;;;;;25.23;6.22;;;5.00;99.90;;;;;;5012454;28;20030;-54
2022/02/26 08:05:28;;;;;;;24.63;6.10;;;4.90;99.90;;;;;;5012841;28;20025;-53
2022/02/26 08:07:54;;;;;;;23.85;6.30;;;4.90;99.90;;;;;;5013084;28;20033;-55
2022/02/26 08:10:22;;;;;;;22.98;6.47;;;4.90;99.90;;;;;;5013608;28;20029;-55
2022/02/26 08:12:49;;;;;;;22.40;6.10;;;5.00;99.90;;;;;;5013653;28;20446;-50
2022/02/26 08:15:15;;;;;;;20.98;5.65;;;5.00;99.90;;;;;;5013559;28;20022;-57
2022/02/26 08:17:45;;;;;;;25.27;5.53;;;4.90;99.90;;;;;;5014587;28;20022;-56
2022/02/26 08:20:11;;;;;;;19.23;6.03;;;4.80;99.90;;;;;;5013686;28;20509;-55
2022/02/26 08:22:37;;;;;;;21.73;6.07;;;5.00;99.90;;;;;;5013491;28;20033;-56
2022/02/26 08:25:03;;;;;;;26.33;5.97;;;5.00;99.90;;;;;;5013833;28;20357;-56
2022/02/26 08:27:29;;;;;;;20.45;6.57;;;5.20;99.90;;;;;;4995547;28;20030;-53
2022/02/26 08:29:55;;;;;;;22.80;6.43;;;5.20;99.90;;;;;;5013451;28;20100;-56
2022/02/26 08:32:21;;;;;;;28.30;6.88;;;5.20;99.90;;;;;;5012953;28;20034;-54
2022/02/26 08:34:47;;;;;;;25.65;6.30;;;5.30;99.90;;;;;;4976244;28;1070018;-56
2022/02/26 08:37:12;;;;;;;29.73;6.25;;;5.30;99.90;;;;;;4996869;28;20473;-55
2022/02/26 08:39:38;;;;;;;23.88;7.15;;;5.30;99.90;;;;;;5013760;28;20030;-55
2022/02/26 08:42:05;;;;;;;17.55;5.93;;;5.20;99.90;;;;;;5012965;28;20120;-58
2022/02/26 08:44:30;;;;;;;27.67;7.50;;;5.10;99.90;;;;;;5013300;28;20440;-54
2022/02/26 08:46:56;;;;;;;23.25;6.07;;;5.20;99.90;;;;;;5013337;28;20073;-55
2022/02/26 08:49:22;;;;;;;19.17;7.35;;;5.30;99.90;;;;;;5012875;28;20029;-52
2022/02/26 08:51:47;;;;;;;34.95;7.85;;;5.40;99.90;;;;;;5013283;28;20122;-56
2022/02/26 08:54:13;;;;;;;28.52;6.85;;;5.40;99.90;;;;;;5013280;28;20038;-55
2022/02/26 08:56:39;;;;;;;20.95;5.07;;;5.40;99.90;;;;;;4995743;28;20034;-55
2022/02/26 08:59:05;;;;;;;26.20;6.35;;;5.40;99.90;;;;;;4995581;28;20038;-54
2022/02/26 09:01:30;;;;;;;23.02;6.40;;;5.30;99.90;;;;;;5012995;28;20104;-55
2022/02/26 09:03:57;;;;;;;17.63;6.78;;;5.50;99.90;;;;;;5013580;28;20049;-55
2022/02/26 09:06:24;;;;;;;19.10;6.03;;;5.60;99.90;;;;;;5012410;28;20037;-59
2022/02/26 09:08:49;;;;;;;24.23;6.05;;;5.70;99.90;;;;;;4995633;28;20034;-57
2022/02/26 09:11:15;;;;;;;18.75;6.38;;;5.70;99.90;;;;;;5013323;28;20047;-53
2022/02/26 09:13:42;;;;;;;23.25;6.20;;;5.60;99.90;;;;;;4995217;28;20033;-54
2022/02/26 09:16:09;;;;;;;25.80;6.20;;;5.60;99.90;;;;;;5012502;28;20533;-56
2022/02/26 09:18:35;;;;;;;21.25;6.72;;;5.80;99.90;;;;;;4995640;28;20037;-55
2022/02/26 09:21:01;;;;;;;26.58;6.15;;;6.00;99.90;;;;;;5013656;28;20038;-58
2022/02/26 09:23:28;;;;;;;29.48;7.25;;;5.90;99.90;;;;;;5012878;28;20062;-55
2022/02/26 09:25:54;;;;;;;24.25;6.70;;;6.00;99.90;;;;;;5012976;28;20030;-56
2022/02/26 09:28:20;;;;;;;23.58;6.55;;;5.90;99.90;;;;;;5012991;28;20120;-52
2022/02/26 09:30:46;;;;;;;21.67;5.78;;;5.90;99.90;;;;;;5012947;28;20062;-57
2022/02/26 09:33:12;;;;;;;20.35;5.68;;;5.80;99.90;;;;;;5012682;28;20116;-55
2022/02/26 09:35:37;;;;;;;22.38;5.75;;;5.70;99.90;;;;;;5025088;28;20414;-54
2022/02/26 09:38:03;;;;;;;18.60;6.88;;;5.60;99.90;;;;;;5032769;28;20401;-56
2022/02/26 09:40:29;;;;;;;19.05;7.05;;;5.60;99.90;;;;;;5015292;28;20041;-57
2022/02/26 09:42:55;;;;;;;21.52;6.30;;;5.70;99.90;;;;;;4993109;28;20560;-53
2022/02/26 09:45:21;;;;;;;26.17;6.38;;;5.70;99.90;;;;;;4993268;28;20042;-57
2022/02/26 09:47:46;;;;;;;19.73;5.63;;;5.70;99.90;;;;;;4992312;28;20054;-55
2022/02/26 09:50:12;;;;;;;18.73;5.88;;;5.90;99.90;;;;;;4993286;28;20045;-54
2022/02/26 09:52:42;;;;;;;23.90;5.85;;;6.00;99.90;;;;;;4993177;28;20035;-56
2022/02/26 09:55:08;;;;;;;24.35;6.75;;;6.10;99.90;;;;;;4993745;28;20026;-55
2022/02/26 09:57:34;;;;;;;22.50;6.60;;;6.10;99.90;;;;;;4994194;28;20026;-57
2022/02/26 10:00:00;;;;;;;18.60;7.20;;;6.10;99.90;;;;;;4993335;28;20029;-55
2022/02/26 10:02:30;;;;;;;13.52;5.47;;;6.20;99.90;;;;;;4993267;28;20041;-52
2022/02/26 10:04:58;;;;;;;19.25;6.13;;;6.20;99.90;;;;;;4994179;28;20034;-58
2022/02/26 10:07:25;;;;;;;20.08;5.70;;;6.20;99.90;;;;;;4993022;28;20085;-58
2022/02/26 10:09:52;;;;;;;19.45;5.80;;;6.00;99.90;;;;;;4993452;28;20072;-53
2022/02/26 10:12:33;;;;;;;17.25;5.75;;;6.00;99.90;;;;;;4993124;28;20498;-58
2022/02/26 10:15:01;;;;;;;15.10;5.97;;;6.10;99.90;;;;;;4993903;28;20363;-57
2022/02/26 10:17:35;;;;;;;23.00;6.25;;;6.00;99.90;;;;;;4993084;28;20455;-54
2022/02/26 10:20:12;;;;;;;14.25;5.65;;;6.00;99.90;;;;;;4993266;28;20042;-56
2022/02/26 10:22:50;;;;;;;16.38;6.20;;;6.00;99.90;;;;;;4992961;28;20034;-58
2022/02/26 10:25:20;;;;;;;17.63;5.65;;;6.10;99.90;;;;;;4993336;28;20093;-56
2022/02/26 10:27:48;;;;;;;15.07;5.60;;;6.30;99.90;;;;;;4993393;28;20122;-53
2022/02/26 10:30:21;;;;;;;25.70;6.55;;;6.20;99.90;;;;;;4996131;28;20061;-58
2022/02/26 10:33:06;;;;;;;21.45;6.43;;;6.30;99.90;;;;;;4996088;28;20133;-53
2022/02/26 10:35:40;;;;;;;17.40;6.63;;;6.40;99.90;;;;;;5018582;28;20037;-56
2022/02/26 10:38:23;;;;;;;20.30;6.57;;;6.40;99.90;;;;;;5035577;28;20120;-54
2022/02/26 10:40:52;;;;;;;23.65;6.95;;;6.40;99.90;;;;;;5015231;28;20044;-56
2022/02/26 10:43:37;;;;;;;24.13;7.13;;;6.30;99.90;;;;;;5015510;28;20096;-58
2022/02/26 10:46:33;;;;;;;21.83;6.25;;;6.30;99.90;;;;;;5015534;28;20034;-54
2022/02/26 10:49:10;;;;;;;16.48;6.40;;;6.40;99.90;;;;;;5002994;28;20025;-54
2022/02/26 10:51:38;;;;;;;14.60;6.30;;;6.50;99.90;;;;;;5015756;28;20026;-57
2022/02/26 10:54:06;;;;;;;20.25;5.63;;;6.60;99.90;;;;;;5015252;28;20508;-57
2022/02/26 10:56:40;;;;;;;16.55;5.25;;;6.40;99.90;;;;;;5016387;28;20048;-52
2022/02/26 10:59:09;;;;;;;19.25;6.85;;;6.30;99.90;;;;;;5014978;28;20030;-56
2022/02/26 11:01:36;;;;;;;21.63;6.72;;;6.50;99.90;;;;;;5015161;28;20069;-51
2022/02/26 11:04:03;;;;;;;21.50;6.53;;;6.40;99.90;;;;;;5014037;28;20038;-57
2022/02/26 11:06:30;;;;;;;18.70;6.25;;;6.60;99.90;;;;;;5015385;28;20042;-55
2022/02/26 11:08:56;;;;;;;19.65;6.78;;;6.70;99.90;;;;;;4997831;28;20022;-52
2022/02/26 11:11:25;;;;;;;15.63;5.53;;;6.70;99.90;;;;;;4997925;28;20026;-58
2022/02/26 11:13:54;;;;;;;21.27;5.30;;;6.60;99.80;;;;;;5014815;28;20065;-55
2022/02/26 11:16:21;;;;;;;15.82;6.20;;;6.70;99.90;;;;;;5014714;28;20057;-56
2022/02/26 11:18:51;;;;;;;20.23;5.78;;;6.80;99.90;;;;;;5015203;28;20049;-53
2022/02/26 11:21:21;;;;;;;13.93;5.20;;;6.90;99.80;;;;;;4998217;28;20037;-53
2022/02/26 11:23:48;;;;;;;15.18;5.75;;;7.10;99.80;;;;;;5014784;28;20112;-58
2022/02/26 11:26:16;;;;;;;17.38;5.55;;;7.30;99.70;;;;;;5015039;28;20096;-54
2022/02/26 11:28:48;;;;;;;14.77;6.05;;;7.20;99.70;;;;;;5015405;28;20037;-56
2022/02/26 11:31:20;;;;;;;18.10;5.78;;;7.00;99.50;;;;;;5015139;28;20053;-56
2022/02/26 11:33:46;;;;;;;18.27;6.70;;;7.00;99.50;;;;;;5015086;28;20079;-54
2022/02/26 11:36:12;;;;;;;22.80;6.50;;;7.10;99.40;;;;;;5031585;28;20455;-56
2022/02/26 11:38:40;;;;;;;18.15;5.95;;;7.30;99.00;;;;;;5033654;28;20091;-58
2022/02/26 11:41:26;;;;;;;20.73;6.28;;;7.20;99.30;;;;;;5029103;28;20033;-58
2022/02/26 11:43:57;;;;;;;17.25;5.60;;;7.30;99.10;;;;;;5014535;28;20041;-52
2022/02/26 11:46:28;;;;;;;19.08;5.75;;;7.20;99.30;;;;;;4997198;28;20065;-56
2022/02/26 11:48:56;;;;;;;17.77;5.85;;;7.20;98.80;;;;;;5014411;28;20052;-54
2022/02/26 11:51:36;;;;;;;14.07;6.18;;;7.20;98.70;;;;;;5014403;28;20041;-54
2022/02/26 11:54:08;;;;;;;15.70;6.20;;;7.30;98.70;;;;;;4996241;28;20504;-58
2022/02/26 11:56:42;;;;;;;12.18;4.97;;;7.40;98.90;;;;;;5014618;28;20038;-54
2022/02/26 11:59:08;;;;;;;17.35;5.38;;;7.40;98.70;;;;;;5014064;28;20401;-55
2022/02/26 12:01:34;;;;;;;15.05;5.70;;;7.40;98.80;;;;;;5013992;28;20121;-56
2022/02/26 12:03:59;;;;;;;13.40;5.25;;;7.40;98.50;;;;;;5013445;28;20129;-54
2022/02/26 12:06:29;;;;;;;17.83;5.00;;;7.20;98.50;;;;;;5013934;28;20037;-56
2022/02/26 12:09:02;;;;;;;15.07;5.10;;;7.40;98.30;;;;;;5013628;28;20080;-57
2022/02/26 12:11:42;;;;;;;25.45;5.82;;;7.40;98.20;;;;;;5014103;28;20034;-55
2022/02/26 12:14:19;;;;;;;15.88;5.43;;;7.50;98.20;;;;;;5013411;28;20037;-57
2022/02/26 12:16:50;;;;;;;16.77;5.28;;;7.60;97.90;;;;;;5013950;28;20087;-57
2022/02/26 12:19:26;;;;;;;17.17;6.10;;;7.60;97.80;;;;;;5014030;28;20048;-55
2022/02/26 12:22:01;;;;;;;16.38;6.35;;;7.60;98.00;;;;;;5014498;28;20040;-57
2022/02/26 12:24:30;;;;;;;13.02;4.93;;;7.70;98.00;;;;;;5014322;28;20042;-58
2022/02/26 12:26:58;;;;;;;13.70;5.65;;;7.70;97.70;;;;;;5013960;28;20129;-55
2022/02/26 12:29:39;;;;;;;18.67;6.13;;;7.70;97.50;;;;;;4995877;28;20029;-55
2022/02/26 12:32:13;;;;;;;15.98;5.55;;;7.90;97.60;;;;;;5013725;28;20116;-57
2022/02/26 12:34:47;;;;;;;16.40;5.97;;;7.80;97.70;;;;;;5016901;28;20489;-54
2022/02/26 12:37:17;;;;;;;14.27;6.32;;;8.00;97.60;;;;;;5033020;28;20057;-56
2022/02/26 12:40:07;;;;;;;21.42;5.93;;;7.90;97.60;;;;;;5033009;28;20030;-58
2022/02/26 12:42:38;;;;;;;19.65;5.40;;;7.90;97.10;;;;;;5016219;28;20429;-55
2022/02/26 12:45:07;;;;;;;11.75;5.15;;;7.70;97.30;;;;;;5013414;28;20041;-55
2022/02/26 12:47:33;;;;;;;16.77;5.78;;;7.60;97.60;;;;;;5013144;28;20034;-56